createdAt,value
2018-11-23T00:02:39.196Z,10.85
2018-11-23T00:05:44.065Z,10.48
2018-11-23T00:08:54.349Z,7.15
2018-11-23T00:11:58.680Z,8.10
2018-11-23T00:15:03.456Z,6.42
2018-11-23T00:18:08.103Z,5.08
2018-11-23T00:21:14.803Z,6.97
2018-11-23T00:24:19.203Z,7.92
2018-11-23T00:27:23.864Z,9.65
2018-11-23T00:30:28.929Z,9.70
2018-11-23T00:33:33.360Z,9.53
2018-11-23T00:36:37.792Z,8.68
2018-11-23T00:39:42.515Z,5.55
2018-11-23T00:42:47.826Z,6.40
2018-11-23T00:45:52.139Z,9.18
2018-11-23T00:48:56.836Z,8.13
2018-11-23T00:52:01.677Z,8.88
2018-11-23T00:55:06.269Z,11.22
2018-11-23T00:58:10.647Z,8.55
2018-11-23T01:01:15.034Z,8.75
2018-11-23T01:04:19.709Z,9.55
2018-11-23T01:07:25.686Z,9.25
2018-11-23T01:10:31.042Z,11.12
2018-11-23T01:13:33.811Z,11.93
2018-11-23T01:16:38.531Z,10.18
2018-11-23T01:19:44.445Z,9.33
2018-11-23T01:22:50.067Z,8.73
2018-11-23T01:25:54.456Z,9.68
2018-11-23T01:28:58.850Z,12.98
2018-11-23T01:32:03.242Z,9.05
2018-11-23T01:35:08.863Z,13.55
2018-11-23T01:38:13.210Z,11.30
2018-11-23T01:41:18.463Z,10.30
2018-11-23T01:44:22.929Z,11.63
2018-11-23T01:47:27.643Z,11.88
2018-11-23T01:50:33.514Z,11.70
2018-11-23T01:53:37.928Z,11.57
2018-11-23T01:56:42.287Z,13.25
2018-11-23T01:59:46.912Z,9.05
2018-11-23T02:02:51.387Z,13.58
2018-11-23T02:05:56.138Z,10.15
2018-11-23T02:09:00.881Z,10.95
2018-11-23T02:12:06.149Z,11.50
2018-11-23T02:15:10.662Z,9.00
2018-11-23T02:18:14.677Z,13.10
2018-11-23T02:21:18.982Z,11.10
2018-11-23T02:24:23.591Z,9.83
2018-11-23T02:27:28.297Z,8.93
2018-11-23T02:30:33.347Z,11.93
2018-11-23T02:33:37.987Z,10.55
2018-11-23T02:36:42.431Z,8.45
2018-11-23T02:39:47.177Z,12.63
2018-11-23T02:42:51.655Z,8.80
2018-11-23T02:45:56.009Z,9.65
2018-11-23T02:49:01.272Z,9.53
2018-11-23T02:52:05.781Z,8.73
2018-11-23T02:55:10.332Z,8.38
2018-11-23T02:58:15.045Z,8.05
2018-11-23T03:01:19.404Z,8.03
2018-11-23T03:04:23.984Z,11.40
2018-11-23T03:07:28.332Z,12.78
2018-11-23T03:10:34.127Z,11.75
2018-11-23T03:13:38.572Z,8.80
2018-11-23T03:16:40.231Z,9.60
2018-11-23T03:19:48.596Z,11.50
2018-11-23T03:22:52.931Z,8.08
2018-11-23T03:25:58.165Z,18.67
2018-11-23T03:29:02.604Z,9.30
2018-11-23T03:32:10.175Z,11.85
2018-11-23T03:35:14.738Z,11.57
2018-11-23T03:38:21.825Z,9.83
2018-11-23T03:41:26.434Z,12.15
2018-11-23T03:44:31.742Z,12.20
2018-11-23T03:47:36.334Z,9.90
2018-11-23T03:50:41.135Z,8.20
2018-11-23T03:53:45.656Z,13.50
2018-11-23T03:56:50.196Z,11.60
2018-11-23T03:59:54.547Z,10.13
2018-11-23T04:02:59.037Z,8.40
2018-11-23T04:06:03.509Z,10.90
2018-11-23T04:09:08.020Z,11.45
2018-11-23T04:12:12.563Z,13.40
2018-11-23T04:15:17.456Z,12.93
2018-11-23T04:18:21.852Z,13.15
2018-11-23T04:21:26.210Z,12.93
2018-11-23T04:24:30.600Z,8.20
2018-11-23T04:27:34.944Z,12.13
2018-11-23T04:30:40.366Z,12.60
2018-11-23T04:33:45.574Z,9.98
2018-11-23T04:36:50.056Z,7.67
2018-11-23T04:39:52.766Z,11.48
2018-11-23T04:42:57.449Z,9.50
2018-11-23T04:46:01.950Z,12.85
2018-11-23T04:49:08.307Z,12.68
2018-11-23T04:52:12.975Z,13.08
2018-11-23T04:55:17.328Z,13.58
2018-11-23T04:58:21.866Z,10.50
2018-11-23T05:01:28.512Z,9.45
2018-11-23T05:04:32.837Z,13.00
2018-11-23T05:07:38.933Z,13.13
2018-11-23T05:10:45.389Z,13.30
2018-11-23T05:13:50.138Z,12.58
2018-11-23T05:16:58.395Z,15.25
2018-11-23T05:19:58.846Z,11.10
2018-11-23T05:23:03.492Z,10.23
2018-11-23T05:26:08.128Z,15.30
2018-11-23T05:29:12.719Z,14.38
2018-11-23T05:32:17.532Z,13.10
2018-11-23T05:35:22.629Z,9.48
2018-11-23T05:38:27.227Z,12.75
2018-11-23T05:41:31.641Z,11.03
2018-11-23T05:44:36.961Z,11.88
2018-11-23T05:47:41.414Z,11.05
2018-11-23T05:50:47.597Z,8.58
2018-11-23T05:53:53.016Z,8.88
2018-11-23T05:56:57.614Z,13.43
2018-11-23T06:00:02.242Z,7.78
2018-11-23T06:03:06.756Z,7.75
2018-11-23T06:06:11.209Z,12.73
2018-11-23T06:09:16.517Z,9.65
2018-11-23T06:12:20.894Z,11.93
2018-11-23T06:15:25.385Z,13.38
2018-11-23T06:18:29.988Z,9.85
2018-11-23T06:21:35.524Z,8.08
2018-11-23T06:24:40.901Z,15.95
2018-11-23T06:27:45.376Z,7.75
2018-11-23T06:30:49.936Z,9.18
2018-11-23T06:34:05.305Z,11.18
2018-11-23T06:37:09.716Z,12.98
2018-11-23T06:40:14.232Z,8.20
2018-11-23T06:43:18.693Z,12.50
2018-11-23T06:46:24.379Z,13.48
2018-11-23T06:49:28.779Z,11.03
2018-11-23T06:52:33.290Z,10.43
2018-11-23T06:55:38.032Z,12.82
2018-11-23T06:58:42.750Z,12.37
2018-11-23T07:01:47.217Z,12.07
2018-11-23T07:04:51.756Z,9.10
2018-11-23T07:07:56.364Z,13.05
2018-11-23T07:11:00.794Z,11.70
2018-11-23T07:14:05.380Z,9.00
2018-11-23T07:17:10.979Z,10.20
2018-11-23T07:20:15.676Z,12.00
2018-11-23T07:23:20.601Z,10.70
2018-11-23T07:26:28.130Z,10.25
2018-11-23T07:29:32.611Z,13.75
2018-11-23T07:32:37.211Z,9.78
2018-11-23T07:35:41.951Z,10.58
2018-11-23T07:38:46.332Z,7.00
2018-11-23T07:41:53.274Z,8.08
2018-11-23T07:44:58.878Z,11.30
2018-11-23T07:48:03.783Z,11.00
2018-11-23T07:51:08.149Z,8.45
2018-11-23T07:54:12.875Z,7.85
2018-11-23T07:57:17.425Z,7.40
2018-11-23T08:00:21.871Z,12.60
2018-11-23T08:03:27.431Z,9.38
2018-11-23T08:06:31.972Z,8.30
2018-11-23T08:09:34.894Z,7.75
2018-11-23T08:12:40.229Z,8.75
2018-11-23T08:15:46.630Z,6.58
2018-11-23T08:18:51.201Z,8.33
2018-11-23T08:21:59.740Z,9.43
2018-11-23T08:25:06.957Z,8.43
2018-11-23T08:28:13.565Z,6.08
2018-11-23T08:31:18.190Z,8.98
2018-11-23T08:34:22.899Z,6.35
2018-11-23T08:37:27.254Z,9.08
2018-11-23T08:40:31.662Z,7.55
2018-11-23T08:43:34.173Z,6.55
2018-11-23T08:46:38.576Z,9.43
2018-11-23T08:49:42.835Z,9.40
2018-11-23T08:52:47.191Z,7.55
2018-11-23T08:55:51.729Z,8.53
2018-11-23T08:58:56.682Z,4.90
2018-11-23T09:02:01.151Z,7.80
2018-11-23T09:05:05.488Z,8.75
2018-11-23T09:08:11.305Z,8.63
2018-11-23T09:11:15.716Z,8.85
2018-11-23T09:14:20.404Z,8.18
2018-11-23T09:17:25.277Z,6.03
2018-11-23T09:20:31.051Z,8.90
2018-11-23T09:23:35.549Z,8.40
2018-11-23T09:26:40.180Z,6.87
2018-11-23T09:29:45.113Z,5.72
2018-11-23T09:32:49.971Z,5.85
2018-11-23T09:35:55.732Z,7.60
2018-11-23T09:39:00.042Z,5.00
2018-11-23T09:42:04.527Z,10.08
2018-11-23T09:45:09.177Z,5.50
2018-11-23T09:48:15.768Z,10.32
2018-11-23T09:51:20.604Z,10.88
2018-11-23T09:54:25.115Z,5.42
2018-11-23T09:57:29.496Z,8.98
2018-11-23T10:00:35.035Z,5.80
2018-11-23T10:03:40.558Z,7.85
2018-11-23T10:06:45.273Z,6.17
2018-11-23T10:09:50.405Z,5.90
2018-11-23T10:13:23.206Z,6.55
2018-11-23T10:16:28.193Z,10.10
2018-11-23T10:19:46.507Z,6.00
2018-11-23T10:23:07.114Z,10.08
2018-11-23T10:26:16.593Z,7.37
2018-11-23T10:29:23.148Z,9.23
2018-11-23T10:32:30.546Z,9.05
2018-11-23T10:35:47.616Z,9.38
2018-11-23T10:38:55.104Z,11.63
2018-11-23T10:42:02.397Z,5.95
2018-11-23T10:45:09.423Z,7.15
2018-11-23T10:48:03.579Z,7.78
2018-11-23T10:51:17.310Z,11.50
2018-11-23T10:54:23.383Z,11.08
2018-11-23T10:57:30.022Z,9.30
2018-11-23T11:00:45.387Z,12.47
2018-11-23T11:04:04.215Z,10.43
2018-11-23T11:07:18.054Z,8.98
2018-11-23T11:10:32.878Z,10.85
2018-11-23T11:13:45.458Z,9.05
2018-11-23T11:16:54.420Z,11.05
2018-11-23T11:20:03.445Z,9.65
2018-11-23T11:22:56.260Z,8.70
2018-11-23T11:26:05.869Z,7.97
2018-11-23T11:29:18.335Z,7.85
2018-11-23T11:32:25.407Z,7.28
2018-11-23T11:35:32.377Z,11.90
2018-11-23T11:38:38.366Z,11.48
2018-11-23T11:41:42.169Z,8.78
2018-11-23T11:44:39.258Z,10.15
2018-11-23T11:47:43.799Z,12.20
2018-11-23T11:50:49.717Z,12.00
2018-11-23T11:53:54.130Z,12.28
2018-11-23T11:56:59.162Z,11.75
2018-11-23T12:00:03.551Z,10.95
2018-11-23T12:03:08.030Z,7.08
2018-11-23T12:06:12.533Z,11.20
2018-11-23T12:09:17.174Z,7.28
2018-11-23T12:12:21.619Z,10.75
2018-11-23T12:15:26.215Z,13.88
2018-11-23T12:18:31.582Z,8.40
2018-11-23T12:21:36.422Z,10.25
2018-11-23T12:24:40.933Z,12.43
2018-11-23T12:27:45.615Z,13.62
2018-11-23T12:30:50.342Z,6.97
2018-11-23T12:33:54.919Z,11.25
2018-11-23T12:36:59.493Z,7.80
2018-11-23T12:40:04.018Z,9.50
2018-11-23T12:43:12.102Z,11.38
2018-11-23T12:46:16.499Z,13.70
2018-11-23T12:49:20.970Z,12.47
2018-11-23T12:52:25.548Z,8.68
2018-11-23T12:55:30.537Z,8.83
2018-11-23T12:58:35.142Z,8.25
2018-11-23T13:01:39.890Z,8.35
2018-11-23T13:04:44.776Z,10.93
2018-11-23T13:07:50.352Z,12.45
2018-11-23T13:10:55.142Z,11.68
2018-11-23T13:14:00.733Z,11.65
2018-11-23T13:17:05.814Z,10.15
2018-11-23T13:20:12.889Z,12.28
2018-11-23T13:23:18.785Z,15.53
2018-11-23T13:26:27.213Z,11.97
2018-11-23T13:29:31.986Z,15.23
2018-11-23T13:32:37.780Z,18.50
2018-11-23T13:35:43.122Z,16.93
2018-11-23T13:38:48.092Z,14.50
2018-11-23T13:41:52.731Z,13.08
2018-11-23T13:44:57.931Z,10.45
2018-11-23T13:48:02.670Z,16.10
2018-11-23T13:51:07.939Z,16.05
2018-11-23T13:54:12.471Z,20.40
2018-11-23T13:57:17.928Z,19.50
2018-11-23T14:00:23.184Z,16.50
2018-11-23T14:03:27.672Z,17.50
2018-11-23T14:06:24.700Z,18.35
2018-11-23T14:09:29.347Z,19.17
2018-11-23T14:12:35.254Z,11.90
2018-11-23T14:15:44.067Z,19.15
2018-11-23T14:18:49.608Z,19.70
2018-11-23T14:21:53.994Z,26.15
2018-11-23T14:24:59.338Z,19.82
2018-11-23T14:28:04.423Z,24.37
2018-11-23T14:31:09.048Z,12.60
2018-11-23T14:34:18.235Z,23.92
2018-11-23T14:37:25.479Z,23.27
2018-11-23T14:40:30.881Z,25.92
2018-11-23T14:43:35.785Z,21.50
2018-11-23T14:46:40.240Z,21.37
2018-11-23T14:49:44.725Z,25.55
2018-11-23T14:52:49.491Z,18.50
2018-11-23T14:55:53.674Z,16.30
2018-11-23T14:58:58.014Z,18.00
2018-11-23T15:02:03.321Z,24.50
2018-11-23T15:05:08.579Z,15.75
2018-11-23T15:08:13.884Z,19.32
2018-11-23T15:11:20.318Z,18.27
2018-11-23T15:14:28.468Z,22.05
2018-11-23T15:17:36.770Z,22.17
2018-11-23T15:20:47.138Z,19.70
2018-11-23T15:23:54.273Z,23.42
2018-11-23T15:27:01.397Z,24.70
2018-11-23T15:30:07.837Z,23.55
2018-11-23T15:33:14.778Z,23.52
2018-11-23T15:36:20.790Z,17.20
2018-11-23T15:39:28.088Z,11.65
2018-11-23T15:42:33.291Z,23.30
2018-11-23T15:45:41.090Z,19.75
2018-11-23T15:48:46.072Z,22.80
2018-11-23T15:51:50.554Z,12.65
2018-11-23T15:54:55.930Z,13.05
2018-11-23T15:58:01.178Z,12.37
2018-11-23T16:01:07.109Z,17.92
2018-11-23T16:04:11.570Z,17.90
2018-11-23T16:07:16.063Z,15.23
2018-11-23T16:10:20.486Z,18.67
2018-11-23T16:13:25.887Z,17.60
2018-11-23T16:16:30.447Z,14.45
2018-11-23T16:19:34.914Z,14.30
2018-11-23T16:22:39.401Z,18.80
2018-11-23T16:25:44.657Z,16.30
2018-11-23T16:28:49.101Z,14.73
2018-11-23T16:31:53.672Z,14.98
2018-11-23T16:34:58.330Z,16.23
2018-11-23T16:38:02.890Z,14.13
2018-11-23T16:41:12.405Z,14.05
2018-11-23T16:44:16.981Z,14.35
2018-11-23T16:47:21.696Z,13.98
2018-11-23T16:50:26.209Z,14.93
2018-11-23T16:53:31.456Z,13.18
2018-11-23T16:56:35.922Z,17.73
2018-11-23T16:59:40.272Z,15.08
2018-11-23T17:02:45.794Z,13.35
2018-11-23T17:05:50.138Z,13.58
2018-11-23T17:08:46.870Z,14.93
2018-11-23T17:11:51.617Z,14.63
2018-11-23T17:14:54.312Z,14.33
2018-11-23T17:17:59.029Z,13.08
2018-11-23T17:21:04.535Z,14.30
2018-11-23T17:24:09.357Z,13.53
2018-11-23T17:27:14.119Z,11.45
2018-11-23T17:30:18.712Z,14.60
2018-11-23T17:33:23.744Z,15.45
2018-11-23T17:36:28.468Z,15.70
2018-11-23T17:39:33.989Z,12.33
2018-11-23T17:42:38.463Z,12.20
2018-11-23T17:45:50.777Z,16.35
2018-11-23T17:48:56.518Z,16.65
2018-11-23T17:52:01.816Z,17.42
2018-11-23T17:55:04.596Z,13.93
2018-11-23T17:58:09.756Z,15.50
2018-11-23T18:01:14.092Z,14.35
2018-11-23T18:04:19.097Z,15.98
2018-11-23T18:07:23.677Z,16.40
2018-11-23T18:10:32.953Z,11.70
2018-11-23T18:13:37.668Z,13.22
2018-11-23T18:16:41.984Z,14.80
2018-11-23T18:19:46.839Z,14.80
2018-11-23T18:22:51.169Z,12.10
2018-11-23T18:25:57.407Z,18.25
2018-11-23T18:29:01.778Z,16.02
2018-11-23T18:32:07.069Z,19.05
2018-11-23T18:35:12.501Z,22.05
2018-11-23T18:38:16.847Z,10.58
2018-11-23T18:41:23.057Z,19.67
2018-11-23T18:44:28.159Z,16.50
2018-11-23T18:47:25.029Z,10.80
2018-11-23T18:51:24.755Z,13.65
2018-11-23T18:54:29.368Z,15.55
2018-11-23T18:57:33.926Z,14.30
2018-11-23T19:00:38.785Z,12.45
2018-11-23T19:03:43.470Z,10.45
2018-11-23T19:06:52.362Z,16.37
2018-11-23T19:09:57.104Z,9.78
2018-11-23T19:13:02.161Z,11.60
2018-11-23T19:16:07.259Z,11.60
2018-11-23T19:19:12.201Z,15.75
2018-11-23T19:22:16.494Z,10.88
2018-11-23T19:25:21.632Z,16.55
2018-11-23T19:28:26.066Z,16.23
2018-11-23T19:31:30.939Z,18.17
2018-11-23T19:34:36.098Z,11.18
2018-11-23T19:37:41.918Z,13.35
2018-11-23T19:40:50.796Z,19.32
2018-11-23T19:43:55.900Z,14.90
2018-11-23T19:47:01.665Z,14.23
2018-11-23T19:50:07.629Z,16.52
2018-11-23T19:53:12.251Z,18.15
2018-11-23T19:56:16.823Z,15.65
2018-11-23T19:59:19.474Z,17.87
2018-11-23T20:02:27.773Z,15.55
2018-11-23T20:05:32.315Z,17.62
2018-11-23T20:08:37.797Z,16.32
2018-11-23T20:11:43.633Z,10.55
2018-11-23T20:14:48.752Z,15.38
2018-11-23T20:17:53.263Z,10.20
2018-11-23T20:20:58.043Z,10.08
2018-11-23T20:24:03.713Z,10.63
2018-11-23T20:27:09.140Z,20.15
2018-11-23T20:30:05.801Z,20.32
2018-11-23T20:33:10.638Z,18.65
2018-11-23T20:36:16.394Z,19.12
2018-11-23T20:39:22.546Z,18.80
2018-11-23T20:42:27.173Z,14.45
2018-11-23T20:45:32.342Z,17.30
2018-11-23T20:48:37.380Z,10.28
2018-11-23T20:51:42.257Z,16.40
2018-11-23T20:54:47.067Z,11.15
2018-11-23T20:57:52.686Z,15.53
2018-11-23T21:00:57.507Z,12.95
2018-11-23T21:03:54.777Z,11.55
2018-11-23T21:06:59.508Z,11.12
2018-11-23T21:10:04.661Z,10.40
2018-11-23T21:13:09.405Z,11.43
2018-11-23T21:16:12.070Z,10.70
2018-11-23T21:19:20.184Z,12.45
2018-11-23T21:22:24.955Z,11.57
2018-11-23T21:25:29.433Z,11.05
2018-11-23T21:28:26.456Z,11.95
2018-11-23T21:31:31.458Z,12.28
2018-11-23T21:34:35.873Z,11.57
2018-11-23T21:37:40.475Z,11.30
2018-11-23T21:40:48.887Z,11.22
2018-11-23T21:43:53.403Z,12.93
2018-11-23T21:46:58.226Z,18.23
2018-11-23T21:50:02.851Z,12.68
2018-11-23T21:53:07.509Z,11.60
2018-11-23T21:56:12.062Z,12.43
2018-11-23T21:59:17.696Z,15.28
2018-11-23T22:02:22.390Z,13.15
2018-11-23T22:05:26.935Z,13.58
2018-11-23T22:08:25.436Z,12.78
2018-11-23T22:11:30.296Z,12.88
2018-11-23T22:14:34.742Z,11.78
2018-11-23T22:17:38.027Z,12.93
2018-11-23T22:20:43.878Z,11.20
2018-11-23T22:23:48.342Z,11.15
2018-11-23T22:26:53.371Z,11.70
2018-11-23T22:29:57.872Z,9.83
2018-11-23T22:32:54.209Z,9.55
2018-11-23T22:35:59.151Z,10.20
2018-11-23T22:39:07.435Z,10.82
2018-11-23T22:42:12.518Z,10.70
2018-11-23T22:45:17.069Z,9.75
2018-11-23T22:48:21.580Z,9.65
2018-11-23T22:51:26.502Z,17.25
2018-11-23T22:54:30.883Z,21.23
2018-11-23T22:57:35.510Z,20.15
2018-11-23T23:00:57.110Z,19.37
2018-11-23T23:04:01.787Z,10.72
2018-11-23T23:07:07.559Z,12.88
2018-11-23T23:10:12.046Z,19.52
2018-11-23T23:13:17.108Z,17.65
2018-11-23T23:16:21.464Z,16.55
2018-11-23T23:19:27.490Z,19.10
2018-11-23T23:22:32.738Z,16.55
2018-11-23T23:25:37.151Z,10.15
2018-11-23T23:28:42.157Z,17.85
2018-11-23T23:31:46.820Z,9.48
2018-11-23T23:34:51.117Z,18.20
2018-11-23T23:37:55.663Z,18.90
2018-11-23T23:41:00.250Z,10.65
2018-11-23T23:44:04.665Z,9.45
2018-11-23T23:47:09.106Z,18.75
2018-11-23T23:50:13.822Z,9.98
2018-11-23T23:53:18.434Z,16.30
2018-11-23T23:56:23.328Z,15.25
2018-11-23T23:59:28.134Z,16.12
